This is the latest recevied weather packets stored in our database for station/object SM6LNJ-13. If no packets are shown the sender has not sent any weather packets the latest 1 day(s).
| Time | Temp. | Humidity | Pressure | Rain* | Wind** | Luminosity | Snow |
|---|---|---|---|---|---|---|---|
| 1777992230 | 15.56° C | 37% | 1431.8 hPa | 0 mm | 0.89 m/s, 200° | - | - |
| 1777992110 | 15.56° C | 37% | 1432.2 hPa | 0 mm | 0.89 m/s, 153° | - | - |
| 1777991990 | 15.56° C | 37% | 1431.8 hPa | 0 mm | 0.89 m/s, 190° | - | - |
| 1777991870 | 15° C | 39% | 1430.9 hPa | 0 mm | 0.45 m/s, 178° | - | - |
| 1777991750 | 14.44° C | 39% | 1429.3 hPa | 0 mm | 0.89 m/s, 174° | - | - |
| 1777991630 | 13.89° C | 39% | 1428.5 hPa | 0 mm | 0.45 m/s, 148° | - | - |
| 1777991510 | 13.89° C | 38% | 1428.8 hPa | 0 mm | 0.45 m/s, 175° | - | - |
| 1777991390 | 13.89° C | 39% | 1429 hPa | 0 mm | 0.45 m/s, 189° | - | - |
| 1777991270 | 13.89° C | 39% | 1428.5 hPa | 0 mm | 0.89 m/s, 191° | - | - |
| 1777991150 | 13.89° C | 41% | 1428.4 hPa | 0 mm | 0.45 m/s, 189° | - | - |
| 1777991030 | 13.89° C | 40% | 1427.8 hPa | 0 mm | 0.45 m/s, 176° | - | - |
| 1777990910 | 13.89° C | 39% | 1427.9 hPa | 0 mm | 0.45 m/s, 199° | - | - |
| 1777990790 | 13.89° C | 38% | 1428.1 hPa | 0 mm | 0.45 m/s, 186° | - | - |
| 1777990675 | 13.89° C | 38% | 1429 hPa | 0 mm | 0.89 m/s, 189° | - | - |
| 1777990550 | 14.44° C | 36% | 1430.1 hPa | 0 mm | 0.89 m/s, 182° | - | - |
| 1777990430 | 15.56° C | 36% | 1431.8 hPa | 0 mm | 0.89 m/s, 202° | - | - |
| 1777990310 | 16.11° C | 36% | 1433.6 hPa | 0 mm | 0.89 m/s, 187° | - | - |
| 1777990190 | 15.56° C | 37% | 1432.2 hPa | 0 mm | 0.89 m/s, 198° | - | - |
| 1777990070 | 15° C | 37% | 1430.7 hPa | 0 mm | 0.45 m/s, 198° | - | - |
| 1777989950 | 14.44° C | 37% | 1429.9 hPa | 0 mm | 0.45 m/s, 204° | - | - |
| 1777989830 | 15° C | 36% | 1430.5 hPa | 0 mm | 0.89 m/s, 178° | - | - |
| 1777989710 | 15.56° C | 35% | 1432.5 hPa | 0 mm | 0.89 m/s, 201° | - | - |
| 1777989590 | 15.56° C | 36% | 1432.7 hPa | 0 mm | 0.45 m/s, 222° | - | - |
| 1777989470 | 15° C | 38% | 1430.9 hPa | 0 mm | 0.89 m/s, 195° | - | - |
| 1777989350 | 15° C | 38% | 1430.5 hPa | 0 mm | 0.89 m/s, 193° | - | - |
* Rain latest hour (hover to see other rain measurements)
** Current wind speed in m/s (hover to see current wind gust speed)